createdAt,value
2022-11-20T00:00:27.460Z,4.14
2022-11-20T00:03:15.479Z,3.62
2022-11-20T00:05:43.373Z,3.84
2022-11-20T00:08:11.562Z,5.79
2022-11-20T00:10:41.164Z,6.83
2022-11-20T00:13:09.317Z,5.84
2022-11-20T00:15:37.346Z,4.85
2022-11-20T00:18:05.450Z,4.16
2022-11-20T00:20:33.550Z,3.67
2022-11-20T00:23:01.555Z,3.30
2022-11-20T00:25:29.407Z,4.09
2022-11-20T00:27:57.411Z,5.90
2022-11-20T00:30:25.503Z,5.58
2022-11-20T00:32:53.488Z,4.58
2022-11-20T00:35:21.349Z,3.87
2022-11-20T00:37:49.305Z,4.34
2022-11-20T00:40:17.364Z,6.08
2022-11-20T00:42:45.455Z,6.26
2022-11-20T00:45:13.430Z,5.19
2022-11-20T00:47:41.708Z,4.35
2022-11-20T00:50:10.751Z,3.86
2022-11-20T00:52:38.663Z,5.07
2022-11-20T00:55:07.078Z,6.83
2022-11-20T00:57:35.107Z,6.35
2022-11-20T01:00:03.509Z,5.22
2022-11-20T01:02:31.467Z,4.41
2022-11-20T01:05:02.278Z,3.85
2022-11-20T01:07:30.255Z,4.67
2022-11-20T01:09:58.386Z,6.72
2022-11-20T01:12:26.474Z,6.81
2022-11-20T01:14:54.594Z,5.60
2022-11-20T01:17:22.786Z,4.67
2022-11-20T01:19:51.972Z,4.22
2022-11-20T01:22:19.960Z,5.71
2022-11-20T01:24:48.214Z,7.01
2022-11-20T01:27:16.387Z,6.07
2022-11-20T01:29:44.355Z,5.02
2022-11-20T01:32:12.311Z,4.27
2022-11-20T01:34:40.160Z,4.24
2022-11-20T01:37:08.180Z,6.13
2022-11-20T01:39:36.061Z,7.01
2022-11-20T01:42:23.061Z,5.86
2022-11-20T01:45:01.179Z,4.74
2022-11-20T01:47:46.563Z,4.01
2022-11-20T01:50:24.548Z,4.82
2022-11-20T01:53:06.433Z,6.80
2022-11-20T01:55:38.655Z,6.39
2022-11-20T01:58:07.126Z,5.20
2022-11-20T02:00:34.998Z,4.37
2022-11-20T02:03:11.180Z,4.30
2022-11-20T02:06:11.584Z,5.96
2022-11-20T02:08:39.885Z,6.55
2022-11-20T02:11:08.119Z,5.41
2022-11-20T02:13:45.025Z,4.52
2022-11-20T02:16:27.621Z,3.98
2022-11-20T02:18:58.720Z,5.23
2022-11-20T02:22:02.252Z,6.53
2022-11-20T02:24:30.017Z,5.48
2022-11-20T02:27:08.346Z,4.53
2022-11-20T02:34:44.258Z,6.75
2022-11-20T02:37:12.368Z,5.64
2022-11-20T02:39:40.655Z,4.67
2022-11-20T02:42:08.835Z,3.99
2022-11-20T02:44:36.676Z,4.04
2022-11-20T02:47:04.603Z,5.94
2022-11-20T02:49:32.516Z,6.35
2022-11-20T02:52:00.810Z,5.27
2022-11-20T02:54:28.796Z,4.36
2022-11-20T02:56:56.596Z,3.88
2022-11-20T03:05:42.387Z,5.27
2022-11-20T03:08:10.332Z,4.38
2022-11-20T03:10:38.207Z,4.00
2022-11-20T03:13:06.535Z,5.55
2022-11-20T03:15:34.333Z,6.83
2022-11-20T03:18:02.199Z,5.89
2022-11-20T03:20:30.420Z,4.83
2022-11-20T03:22:58.300Z,4.09
2022-11-20T03:25:26.263Z,4.14
2022-11-20T03:27:55.483Z,6.05
2022-11-20T03:30:27.651Z,7.09
2022-11-20T03:32:58.427Z,5.95
2022-11-20T03:35:26.925Z,4.91
2022-11-20T03:37:54.752Z,4.18
2022-11-20T03:40:22.616Z,4.12
2022-11-20T03:42:50.538Z,5.94
2022-11-20T03:45:19.476Z,6.93
2022-11-20T03:47:47.753Z,5.87
2022-11-20T03:50:15.773Z,4.85
2022-11-20T03:52:43.770Z,4.14
2022-11-20T03:55:11.818Z,4.06
2022-11-20T03:57:39.702Z,5.87
2022-11-20T04:00:08.197Z,6.97
2022-11-20T04:02:36.171Z,5.96
2022-11-20T04:05:04.354Z,4.95
2022-11-20T04:07:32.456Z,4.23
2022-11-20T04:10:00.563Z,3.73
2022-11-20T04:12:28.444Z,4.43
2022-11-20T04:14:56.364Z,6.35
2022-11-20T04:17:24.284Z,6.57
2022-11-20T04:19:52.261Z,5.46
2022-11-20T04:22:20.060Z,4.59
2022-11-20T04:24:47.948Z,3.96
2022-11-20T04:27:15.819Z,3.57
2022-11-20T04:29:43.796Z,4.69
2022-11-20T04:32:11.658Z,6.40
2022-11-20T04:34:39.642Z,5.99
2022-11-20T04:37:07.633Z,4.94
2022-11-20T04:39:35.618Z,4.18
2022-11-20T04:42:22.294Z,3.64
2022-11-20T04:44:50.138Z,3.83
2022-11-20T04:47:17.904Z,5.66
2022-11-20T04:49:45.789Z,6.60
2022-11-20T04:52:13.712Z,5.59
2022-11-20T04:54:41.591Z,4.64
2022-11-20T04:57:14.244Z,3.97
2022-11-20T04:59:42.663Z,3.95
2022-11-20T05:02:12.800Z,5.74
2022-11-20T05:04:40.792Z,6.68
2022-11-20T05:07:08.799Z,5.64
2022-11-20T05:09:36.772Z,4.68
2022-11-20T05:12:04.984Z,4.00
2022-11-20T05:14:32.953Z,3.90
2022-11-20T05:17:00.921Z,5.69
2022-11-20T05:19:28.787Z,6.86
2022-11-20T05:21:56.729Z,5.89
2022-11-20T05:24:24.763Z,4.87
2022-11-20T05:26:52.589Z,4.15
2022-11-20T05:29:20.730Z,3.66
2022-11-20T05:31:48.942Z,4.72
2022-11-20T05:34:16.991Z,6.68
2022-11-20T05:36:44.904Z,6.46
2022-11-20T05:39:12.839Z,5.30
2022-11-20T05:41:40.796Z,4.44
2022-11-20T05:44:12.669Z,3.86
2022-11-20T05:46:40.569Z,4.68
2022-11-20T05:49:08.623Z,6.59
2022-11-20T05:51:36.483Z,6.30
2022-11-20T05:54:04.288Z,5.14
2022-11-20T05:56:32.218Z,4.32
2022-11-20T05:59:00.078Z,4.11
2022-11-20T06:01:27.998Z,5.86
2022-11-20T06:03:56.307Z,6.32
2022-11-20T06:06:24.613Z,5.24
2022-11-20T06:08:56.710Z,4.36
2022-11-20T06:11:24.565Z,3.73
2022-11-20T06:13:52.752Z,3.25
2022-11-20T06:16:21.478Z,3.38
2022-11-20T06:18:49.719Z,5.37
2022-11-20T06:21:23.579Z,6.30
2022-11-20T06:23:53.584Z,5.17
2022-11-20T06:26:26.247Z,4.18
2022-11-20T06:28:55.350Z,3.51
2022-11-20T06:31:25.527Z,3.04
2022-11-20T06:33:54.359Z,2.88
2022-11-20T06:36:23.938Z,4.56
2022-11-20T06:38:52.293Z,5.72
2022-11-20T06:41:22.897Z,4.77
2022-11-20T06:43:51.383Z,3.86
2022-11-20T06:46:21.183Z,3.24
2022-11-20T06:48:50.211Z,2.83
2022-11-20T06:51:19.078Z,3.92
2022-11-20T06:53:47.184Z,5.67
2022-11-20T06:56:15.549Z,5.16
2022-11-20T06:58:43.635Z,4.18
2022-11-20T07:01:15.208Z,3.50
2022-11-20T07:03:44.164Z,3.00
2022-11-20T07:06:12.364Z,2.64
2022-11-20T07:08:40.310Z,2.78
2022-11-20T07:11:09.865Z,4.74
2022-11-20T07:13:37.875Z,5.82
2022-11-20T07:16:09.325Z,4.87
2022-11-20T07:18:38.119Z,3.95
2022-11-20T07:21:09.229Z,3.35
2022-11-20T07:23:38.244Z,2.90
2022-11-20T07:26:12.501Z,2.58
2022-11-20T07:28:40.382Z,3.59
2022-11-20T07:31:08.708Z,5.63
2022-11-20T07:33:36.712Z,5.61
2022-11-20T07:36:08.142Z,4.55
2022-11-20T07:38:38.701Z,3.75
2022-11-20T07:41:07.069Z,3.24
2022-11-20T07:43:51.364Z,2.91
2022-11-20T07:46:22.184Z,4.17
2022-11-20T07:48:50.706Z,5.78
2022-11-20T07:51:18.980Z,5.18
2022-11-20T08:00:58.099Z,2.97
2022-11-20T08:03:30.306Z,4.25
2022-11-20T08:06:02.015Z,6.44
2022-11-20T08:08:33.421Z,6.17
2022-11-20T08:11:20.586Z,5.07
2022-11-20T08:14:07.185Z,4.24
2022-11-20T08:16:35.563Z,3.70
2022-11-20T08:19:03.661Z,3.36
2022-11-20T08:21:37.797Z,3.08
2022-11-20T08:24:07.351Z,3.27
2022-11-20T08:26:37.896Z,5.33
2022-11-20T08:29:06.239Z,6.36
2022-11-20T08:31:34.241Z,5.41
2022-11-20T08:34:22.186Z,4.49
2022-11-20T08:36:49.983Z,3.97
2022-11-20T08:39:17.940Z,3.62
2022-11-20T08:41:46.032Z,3.36
2022-11-20T08:44:14.081Z,3.13
2022-11-20T08:46:44.698Z,3.29
2022-11-20T08:49:13.854Z,5.27
2022-11-20T08:51:42.809Z,6.62
2022-11-20T09:00:35.550Z,4.11
2022-11-20T09:03:03.546Z,3.81
2022-11-20T09:05:31.415Z,3.58
2022-11-20T09:08:00.180Z,3.40
2022-11-20T09:10:28.843Z,3.25
2022-11-20T09:12:57.131Z,3.13
2022-11-20T09:15:26.159Z,3.65
2022-11-20T09:18:02.177Z,5.82
2022-11-20T09:20:31.347Z,6.71
2022-11-20T09:22:59.487Z,5.89
2022-11-20T09:25:28.067Z,5.27
2022-11-20T09:27:58.217Z,4.96
2022-11-20T09:30:26.941Z,4.82
2022-11-20T09:32:55.116Z,4.75
2022-11-20T09:35:23.563Z,4.68
2022-11-20T09:37:51.757Z,4.61
2022-11-20T09:40:21.795Z,4.56
2022-11-20T09:43:19.737Z,4.52
2022-11-20T09:46:30.737Z,4.48
2022-11-20T09:49:04.415Z,4.42
2022-11-20T09:51:50.711Z,4.33
2022-11-20T09:54:37.411Z,4.24
2022-11-20T09:57:15.750Z,4.14
2022-11-20T09:59:48.145Z,4.04
2022-11-20T10:02:23.632Z,3.94
2022-11-20T10:05:26.974Z,3.84
2022-11-20T10:08:00.059Z,3.73
2022-11-20T10:11:16.799Z,3.67
2022-11-20T10:14:17.480Z,3.61
2022-11-20T10:16:59.001Z,3.58
2022-11-20T10:19:47.545Z,3.57
2022-11-20T10:22:27.388Z,3.56
2022-11-20T10:25:23.193Z,3.56
2022-11-20T10:28:29.846Z,3.54
2022-11-20T10:31:37.713Z,3.48
2022-11-20T10:34:34.198Z,3.40
2022-11-20T10:37:34.236Z,3.31
2022-11-20T10:40:21.900Z,4.19
2022-11-20T10:43:16.400Z,6.59
2022-11-20T10:46:18.075Z,6.44
2022-11-20T10:48:46.676Z,5.47
2022-11-20T10:51:50.148Z,4.96
2022-11-20T10:54:31.467Z,4.54
2022-11-20T10:57:15.116Z,4.29
2022-11-20T11:00:05.680Z,4.09
2022-11-20T11:02:52.782Z,3.92
2022-11-20T11:05:51.106Z,3.77
2022-11-20T11:08:20.452Z,4.50
2022-11-20T11:10:56.268Z,6.65
2022-11-20T11:13:30.426Z,7.41
2022-11-20T11:15:59.585Z,6.45
2022-11-20T11:18:31.807Z,5.70
2022-11-20T11:21:05.737Z,5.19
2022-11-20T11:23:38.173Z,4.85
2022-11-20T11:26:28.240Z,4.59
2022-11-20T11:29:04.729Z,4.33
2022-11-20T11:31:36.481Z,4.13
2022-11-20T11:34:22.554Z,3.95
2022-11-20T11:37:22.639Z,3.78
2022-11-20T11:40:03.921Z,3.61
2022-11-20T11:42:53.737Z,3.95
2022-11-20T11:45:23.116Z,6.06
2022-11-20T11:47:52.763Z,6.30
2022-11-20T11:50:27.056Z,5.46
2022-11-20T11:53:25.343Z,4.81
2022-11-20T11:56:04.197Z,4.34
2022-11-20T11:58:47.257Z,4.05
2022-11-20T12:01:50.124Z,3.83
2022-11-20T12:04:52.013Z,3.63
2022-11-20T12:08:00.107Z,3.44
2022-11-20T12:11:03.888Z,3.30
2022-11-20T12:13:34.775Z,5.00
2022-11-20T12:16:04.273Z,6.49
2022-11-20T12:18:32.724Z,5.93
2022-11-20T12:21:31.112Z,5.16
2022-11-20T12:24:25.953Z,4.56
2022-11-20T12:27:46.335Z,4.18
2022-11-20T12:30:17.420Z,3.89
2022-11-20T12:33:36.327Z,3.70
2022-11-20T12:36:36.947Z,4.49
2022-11-20T12:39:20.056Z,6.89
2022-11-20T12:42:44.647Z,7.47
2022-11-20T12:45:42.676Z,6.12
2022-11-20T12:48:47.872Z,5.33
2022-11-20T12:51:33.837Z,4.84
2022-11-20T12:54:53.875Z,4.52
2022-11-20T12:57:50.393Z,4.21
2022-11-20T13:00:23.089Z,4.63
2022-11-20T13:03:10.468Z,6.42
2022-11-20T13:06:20.437Z,7.01
2022-11-20T13:08:58.551Z,5.94
2022-11-20T13:11:45.062Z,5.29
2022-11-20T13:14:51.162Z,4.84
2022-11-20T13:17:30.139Z,4.49
2022-11-20T13:20:01.498Z,4.25
2022-11-20T13:22:46.923Z,4.56
2022-11-20T13:25:39.219Z,6.73
2022-11-20T13:28:12.019Z,7.73
2022-11-20T13:31:00.041Z,6.75
2022-11-20T13:33:34.678Z,5.86
2022-11-20T13:36:22.815Z,5.33
2022-11-20T13:38:56.423Z,4.93
2022-11-20T13:41:35.198Z,4.66
2022-11-20T13:44:12.336Z,4.43
2022-11-20T13:46:48.117Z,4.22
2022-11-20T13:49:45.379Z,4.04
2022-11-20T13:53:11.226Z,4.45
2022-11-20T13:55:55.711Z,6.62
2022-11-20T13:58:51.960Z,6.68
2022-11-20T14:01:29.583Z,5.74
2022-11-20T14:04:06.421Z,5.16
2022-11-20T14:06:46.995Z,4.76
2022-11-20T14:09:32.544Z,4.46
2022-11-20T14:12:02.348Z,4.19
2022-11-20T14:14:33.375Z,3.98
2022-11-20T14:17:23.024Z,4.22
2022-11-20T14:19:52.820Z,6.48
2022-11-20T14:22:26.680Z,7.61
2022-11-20T14:25:06.867Z,6.68
2022-11-20T14:27:38.566Z,5.78
2022-11-20T14:30:14.596Z,5.21
2022-11-20T14:32:43.573Z,4.80
2022-11-20T14:35:20.993Z,4.47
2022-11-20T14:37:49.041Z,4.19
2022-11-20T14:40:37.210Z,3.98
2022-11-20T14:43:27.707Z,4.33
2022-11-20T14:46:02.417Z,6.42
2022-11-20T14:48:52.452Z,7.57
2022-11-20T14:51:42.249Z,6.50
2022-11-20T14:54:25.149Z,5.57
2022-11-20T14:57:04.478Z,4.99
2022-11-20T14:59:35.683Z,4.59
2022-11-20T15:02:12.073Z,4.28
2022-11-20T15:04:57.750Z,4.02
2022-11-20T15:07:51.744Z,3.77
2022-11-20T15:10:28.142Z,4.02
2022-11-20T15:13:20.412Z,5.88
2022-11-20T15:15:55.967Z,7.11
2022-11-20T15:18:37.671Z,6.15
2022-11-20T15:21:17.946Z,5.27
2022-11-20T15:23:46.111Z,4.70
2022-11-20T15:26:20.313Z,4.33
2022-11-20T15:28:51.181Z,4.02
2022-11-20T15:31:23.114Z,4.45
2022-11-20T15:33:51.693Z,6.52
2022-11-20T15:36:19.668Z,7.76
2022-11-20T15:38:47.584Z,6.84
2022-11-20T15:41:15.544Z,5.84
2022-11-20T15:43:43.462Z,5.16
2022-11-20T15:46:14.894Z,4.68
2022-11-20T15:48:48.288Z,4.75
2022-11-20T15:51:21.090Z,6.76
2022-11-20T15:53:48.873Z,7.94
2022-11-20T15:56:16.711Z,6.94
2022-11-20T15:58:44.558Z,5.96
2022-11-20T16:01:15.314Z,5.27
2022-11-20T16:03:43.600Z,4.78
2022-11-20T16:06:11.921Z,4.57
2022-11-20T16:08:40.470Z,6.04
2022-11-20T16:11:10.379Z,7.78
2022-11-20T16:13:56.802Z,7.32
2022-11-20T16:16:31.104Z,6.11
2022-11-20T16:18:59.057Z,5.33
2022-11-20T16:21:33.500Z,4.81
2022-11-20T16:24:04.284Z,4.38
2022-11-20T16:26:32.705Z,4.71
2022-11-20T16:29:01.815Z,6.63
2022-11-20T16:31:30.399Z,7.64
2022-11-20T16:34:11.196Z,6.68
2022-11-20T16:36:44.540Z,5.66
2022-11-20T16:39:13.338Z,5.01
2022-11-20T16:41:41.204Z,4.56
2022-11-20T16:44:11.696Z,4.81
2022-11-20T16:46:41.001Z,6.71
2022-11-20T16:49:13.952Z,7.78
2022-11-20T16:51:42.927Z,6.80
2022-11-20T16:54:13.054Z,5.85
2022-11-20T16:56:43.766Z,5.17
2022-11-20T16:59:17.510Z,4.68
2022-11-20T17:01:45.947Z,4.72
2022-11-20T17:04:14.037Z,6.54
2022-11-20T17:06:44.439Z,7.71
2022-11-20T17:09:13.048Z,6.78
2022-11-20T17:11:40.923Z,5.80
2022-11-20T17:14:10.068Z,5.13
2022-11-20T17:16:38.658Z,4.64
2022-11-20T17:19:06.559Z,5.31
2022-11-20T17:21:39.593Z,7.25
2022-11-20T17:24:13.046Z,7.98
2022-11-20T17:26:43.084Z,6.84
2022-11-20T17:29:17.719Z,5.86
2022-11-20T17:33:35.504Z,4.80
2022-11-20T17:36:04.056Z,5.57
2022-11-20T17:38:30.648Z,7.38
2022-11-20T17:41:16.213Z,7.35
2022-11-20T17:43:44.207Z,6.10
2022-11-20T17:46:15.149Z,5.26
2022-11-20T17:48:43.883Z,4.64
2022-11-20T17:51:22.292Z,4.61
2022-11-20T17:53:52.666Z,6.53
2022-11-20T17:56:39.088Z,7.53
2022-11-20T17:59:08.601Z,6.34
2022-11-20T18:01:36.171Z,5.35
2022-11-20T18:04:03.174Z,4.67
2022-11-20T18:06:31.639Z,4.43
2022-11-20T18:09:00.109Z,5.98
2022-11-20T18:11:30.674Z,7.24
2022-11-20T18:14:18.304Z,6.39
2022-11-20T18:16:49.652Z,5.28
2022-11-20T18:19:20.599Z,4.60
2022-11-20T18:21:47.677Z,4.55
2022-11-20T18:24:14.602Z,6.27
2022-11-20T18:26:44.695Z,7.46
2022-11-20T18:29:13.001Z,6.54
2022-11-20T18:31:40.681Z,5.50
2022-11-20T18:34:11.079Z,4.76
2022-11-20T18:36:37.977Z,4.55
2022-11-20T18:39:05.717Z,6.17
2022-11-20T18:41:51.174Z,7.43
2022-11-20T18:44:39.901Z,6.38
2022-11-20T18:47:14.238Z,5.26
2022-11-20T18:49:45.697Z,4.56
2022-11-20T18:52:13.155Z,4.59
2022-11-20T18:54:40.549Z,6.45
2022-11-20T18:57:09.658Z,7.52
2022-11-20T18:59:36.319Z,6.48
2022-11-20T19:02:03.295Z,5.41
2022-11-20T19:04:30.354Z,4.68
2022-11-20T19:06:57.083Z,4.15
2022-11-20T19:09:24.372Z,4.80
2022-11-20T19:11:51.269Z,6.86
2022-11-20T19:14:17.951Z,7.51
2022-11-20T19:16:44.437Z,6.32
2022-11-20T19:19:11.087Z,5.31
2022-11-20T19:21:41.617Z,4.62
2022-11-20T19:24:08.664Z,4.08
2022-11-20T19:26:37.095Z,4.28
2022-11-20T19:29:05.753Z,6.32
2022-11-20T19:31:32.977Z,7.24
2022-11-20T19:34:02.004Z,6.13
2022-11-20T19:36:33.278Z,5.12
2022-11-20T19:39:00.391Z,4.41
2022-11-20T19:41:30.706Z,3.90
2022-11-20T19:44:14.061Z,3.50
2022-11-20T19:46:41.309Z,3.75
2022-11-20T19:49:10.494Z,5.82
2022-11-20T19:51:41.324Z,6.75
2022-11-20T19:54:07.951Z,5.66
2022-11-20T19:56:34.407Z,4.68
2022-11-20T19:59:01.173Z,4.02
2022-11-20T20:01:30.489Z,3.54
2022-11-20T20:04:04.753Z,3.31
2022-11-20T20:06:33.636Z,4.98
2022-11-20T20:09:06.779Z,6.48
2022-11-20T20:11:34.625Z,5.62
2022-11-20T20:14:10.172Z,4.62
2022-11-20T20:16:36.717Z,3.90
2022-11-20T20:19:05.341Z,3.46
2022-11-20T20:21:34.569Z,4.46
2022-11-20T20:24:01.942Z,6.40
2022-11-20T20:26:30.835Z,6.12
2022-11-20T20:28:58.975Z,5.03
2022-11-20T20:31:28.957Z,4.22
2022-11-20T20:33:56.743Z,3.66
2022-11-20T20:36:25.259Z,3.23
2022-11-20T20:38:58.954Z,3.37
2022-11-20T20:41:25.785Z,5.33
2022-11-20T20:44:11.924Z,6.42
2022-11-20T20:46:39.955Z,5.32
2022-11-20T20:49:07.067Z,4.36
2022-11-20T20:51:35.069Z,3.70
2022-11-20T20:54:02.524Z,3.22
2022-11-20T20:56:29.357Z,2.83
2022-11-20T20:58:56.093Z,2.86
2022-11-20T21:01:25.108Z,4.63
2022-11-20T21:03:52.117Z,5.75
2022-11-20T21:06:18.930Z,4.85
2022-11-20T21:08:45.545Z,3.92
2022-11-20T21:11:15.587Z,3.26
2022-11-20T21:13:44.338Z,2.77
2022-11-20T21:16:14.961Z,2.39
2022-11-20T21:18:42.176Z,3.07
2022-11-20T21:21:31.342Z,5.15
2022-11-20T21:23:57.986Z,5.69
2022-11-20T21:26:25.004Z,4.52
2022-11-20T21:28:51.792Z,3.63
2022-11-20T21:31:24.448Z,3.00
2022-11-20T21:33:53.329Z,2.51
2022-11-20T21:36:22.943Z,2.53
2022-11-20T21:38:52.653Z,4.22
2022-11-20T21:41:19.262Z,5.49
2022-11-20T21:43:48.942Z,4.59
2022-11-20T21:46:21.791Z,3.57
2022-11-20T21:48:48.788Z,2.87
2022-11-20T21:51:21.716Z,2.39
2022-11-20T21:53:49.388Z,2.61
2022-11-20T21:56:20.489Z,4.54
2022-11-20T21:58:47.980Z,5.64
2022-11-20T22:01:21.984Z,4.61
2022-11-20T22:03:51.365Z,3.58
2022-11-20T22:06:19.051Z,2.88
2022-11-20T22:08:46.391Z,2.39
2022-11-20T22:11:16.025Z,2.56
2022-11-20T22:14:01.986Z,4.35
2022-11-20T22:16:29.605Z,5.42
2022-11-20T22:18:57.612Z,4.36
2022-11-20T22:21:26.830Z,3.39
2022-11-20T22:23:54.097Z,2.74
2022-11-20T22:26:40.207Z,2.24
2022-11-20T22:29:10.052Z,2.52
2022-11-20T22:31:36.414Z,4.52
2022-11-20T22:34:02.892Z,5.22
2022-11-20T22:36:30.923Z,4.16
2022-11-20T22:38:57.708Z,3.22
2022-11-20T22:41:28.402Z,2.55
2022-11-20T22:43:57.685Z,2.17
2022-11-20T22:46:25.993Z,3.53
2022-11-20T22:48:57.967Z,5.25
2022-11-20T22:51:28.386Z,4.59
2022-11-20T22:53:54.954Z,3.51
2022-11-20T22:56:21.997Z,2.77
2022-11-20T22:58:51.338Z,2.24
2022-11-20T23:01:19.066Z,2.39
2022-11-20T23:03:48.363Z,4.50
2022-11-20T23:06:16.909Z,5.61
2022-11-20T23:08:43.558Z,4.53
2022-11-20T23:11:15.281Z,3.48
2022-11-20T23:13:42.626Z,2.74
2022-11-20T23:16:13.399Z,2.21
2022-11-20T23:18:40.976Z,2.08
2022-11-20T23:21:12.373Z,4.08
2022-11-20T23:23:39.317Z,5.57
2022-11-20T23:26:12.032Z,4.51
2022-11-20T23:28:39.901Z,3.41
2022-11-20T23:31:06.942Z,2.67
2022-11-20T23:33:38.654Z,2.13
2022-11-20T23:36:06.835Z,2.19
2022-11-20T23:38:33.781Z,4.32
2022-11-20T23:41:00.164Z,5.57
2022-11-20T23:43:26.879Z,4.48
2022-11-20T23:45:56.008Z,3.41
2022-11-20T23:48:25.485Z,2.64
2022-11-20T23:50:51.956Z,2.09
2022-11-20T23:53:19.268Z,2.20
2022-11-20T23:55:54.479Z,4.29
2022-11-20T23:58:22.555Z,5.57
